Time;durP1;ratioP1;P1;durP2;ratioP2;P2;SDS_P1;SDS_P2;PMS_P1;PMS_P2;Temp;Humidity;BMP_temperature;BMP_pressure;BME280_temperature;BME280_humidity;BME280_pressure;Samples;Min_cycle;Max_cycle;Signal;HPM_P1;HPM_P2
2023/01/12 06:21:01;;;;;;;;;;;;;;;8.44;73.17;97754.22;4275001;27;10190;-78
2023/01/12 06:23:04;;;;;;;;;;;;;;;8.72;72.78;97757.47;4263901;27;5635;-78
2023/01/12 06:25:08;;;;;;;;;;;;;;;8.95;72.42;97760.41;4262289;27;5635;-77
2023/01/12 06:27:11;;;;;;;;;;;;;;;9.13;71.94;97749.72;4258305;27;5779;-78
2023/01/12 06:29:13;;;;;;;;;;;;;;;9.26;71.47;97761.47;4264836;27;5715;-78
2023/01/12 06:31:16;;;;;;;;;;;;;;;9.40;70.96;97762.69;4261718;27;5786;-79
2023/01/12 06:33:19;;;;;;;;;;;;;;;9.49;70.90;97766.13;4260272;27;5578;-78
2023/01/12 06:35:22;;;;;;;;;;;;;;;9.56;70.96;97762.69;4267173;27;5711;-79
2023/01/12 06:37:26;;;;;;;;;;;;;;;9.63;70.54;97765.53;4265762;27;5106;-78
2023/01/12 06:39:28;;;;;;;;;;;;;;;9.68;70.27;97763.22;4258637;27;7687;-78
2023/01/12 06:43:54;;;;;;;;;;;;;;;9.77;69.88;97764.88;4263074;27;5785;-79
2023/01/12 06:45:56;;;;;;;;;;;;;;;9.77;69.86;97759.59;4258787;27;5691;-79
2023/01/12 06:47:59;;;;;;;;;;;;;;;9.82;69.96;97754.63;4267641;27;5640;-79
2023/01/12 06:50:09;;;;;;;;;;;;;;;9.85;69.63;97749.03;4267407;27;5620;-80
2023/01/12 06:52:12;;;;;;;;;;;;;;;9.85;69.69;97749.03;4267177;27;6342;-79
2023/01/12 06:54:17;;;;;;;;;;;;;;;9.87;69.39;97739.13;4257960;27;5633;-78
2023/01/12 06:56:22;;;;;;;;;;;;;;;9.87;69.25;97723.28;4263691;27;5711;-78
2023/01/12 06:58:25;;;;;;;;;;;;;;;9.90;69.38;97728.22;4264377;27;5628;-71
2023/01/12 07:00:28;;;;;;;;;;;;;;;9.90;69.12;97730.88;4264335;27;5719;-79
2023/01/12 07:02:30;;;;;;;;;;;;;;;9.91;69.19;97739.63;4264509;27;5646;-79
2023/01/12 07:04:33;;;;;;;;;;;;;;;9.92;68.97;97742.09;4262727;27;5739;-78
2023/01/12 07:06:36;;;;;;;;;;;;;;;9.92;69.04;97746.53;4266729;27;5764;-79
2023/01/12 07:08:41;;;;;;;;;;;;;;;9.92;68.67;97750.00;4263897;27;5627;-78
2023/01/12 07:10:46;;;;;;;;;;;;;;;9.93;68.58;97749.00;4264193;27;5627;-78
2023/01/12 07:12:50;;;;;;;;;;;;;;;9.94;68.83;97739.28;4268064;27;5867;-79
2023/01/12 07:14:55;;;;;;;;;;;;;;;9.92;68.41;97731.50;4264718;27;5631;-78
2023/01/12 07:16:57;;;;;;;;;;;;;;;9.99;68.63;97738.78;4263051;27;5754;-78
2023/01/12 07:19:00;;;;;;;;;;;;;;;9.96;68.65;97734.63;4271119;27;5628;-77
2023/01/12 07:21:08;;;;;;;;;;;;;;;9.97;68.18;97738.97;4261576;27;5659;-79
2023/01/12 07:23:11;;;;;;;;;;;;;;;9.97;68.23;97738.97;4256281;27;5621;-79
2023/01/12 07:25:14;;;;;;;;;;;;;;;9.97;68.10;97743.41;4260291;27;5616;-78
2023/01/12 07:27:18;;;;;;;;;;;;;;;9.98;68.16;97750.34;4258058;27;5718;-78
2023/01/12 07:29:20;;;;;;;;;;;;;;;9.97;68.05;97744.25;4243309;27;5589;-78
2023/01/12 07:31:23;;;;;;;;;;;;;;;9.98;68.17;97734.50;4239135;28;5674;-79
2023/01/12 07:33:26;;;;;;;;;;;;;;;9.99;68.06;97725.59;4256875;27;5643;-82
2023/01/12 07:35:29;;;;;;;;;;;;;;;9.98;67.72;97732.69;4242869;27;5736;-78
2023/01/12 07:37:32;;;;;;;;;;;;;;;9.99;67.94;97736.16;4247233;27;5716;-78
2023/01/12 07:39:35;;;;;;;;;;;;;;;9.99;67.93;97741.44;4238481;28;5661;-78
2023/01/12 07:43:59;;;;;;;;;;;;;;;9.99;67.65;97746.72;4233750;27;5718;-78
2023/01/12 07:46:02;;;;;;;;;;;;;;;9.98;67.76;97747.72;4256465;27;5628;-78
2023/01/12 07:48:05;;;;;;;;;;;;;;;9.98;67.30;97737.16;4256076;27;5756;-78
2023/01/12 07:50:10;;;;;;;;;;;;;;;9.99;67.39;97729.06;4259989;27;5368;-77
2023/01/12 07:52:14;;;;;;;;;;;;;;;10.01;67.36;97731.53;4241756;27;7778;-78
2023/01/12 07:54:18;;;;;;;;;;;;;;;10.02;67.12;97733.16;4256521;27;5632;-78
2023/01/12 07:56:21;;;;;;;;;;;;;;;10.03;67.13;97740.09;4252337;27;5646;-78
2023/01/12 07:58:26;;;;;;;;;;;;;;;10.03;67.21;97729.53;4242750;28;5645;-77
2023/01/12 08:00:31;;;;;;;;;;;;;;;10.04;66.76;97728.53;4241228;28;5652;-77
2023/01/12 08:02:34;;;;;;;;;;;;;;;10.05;66.71;97735.47;4252577;27;5624;-78
2023/01/12 08:04:36;;;;;;;;;;;;;;;10.06;66.65;97742.41;4240419;27;5679;-77
2023/01/12 08:06:48;;;;;;;;;;;;;;;10.06;66.48;97743.22;4253569;27;5109;-78
2023/01/12 08:08:53;;;;;;;;;;;;;;;10.07;66.54;97749.31;4253327;27;5637;-79
2023/01/12 08:11:01;;;;;;;;;;;;;;;10.10;66.53;97749.03;4238912;28;5654;-79
2023/01/12 08:13:08;;;;;;;;;;;;;;;10.12;66.74;97755.78;4239281;28;5630;-79
2023/01/12 08:15:13;;;;;;;;;;;;;;;10.12;66.39;97763.72;4239059;28;5707;-78
2023/01/12 08:17:21;;;;;;;;;;;;;;;10.14;66.63;97766.19;4243315;28;5759;-78
2023/01/12 08:19:29;;;;;;;;;;;;;;;10.14;66.11;97780.22;4242997;27;5634;-78
2023/01/12 08:21:40;;;;;;;;;;;;;;;10.16;66.20;97788.78;4255747;27;5623;-78
2023/01/12 08:23:47;;;;;;;;;;;;;;;10.17;66.33;97784.34;4255113;27;5631;-78
2023/01/12 08:25:55;;;;;;;;;;;;;;;10.19;65.89;97795.56;4255933;27;5630;-79
2023/01/12 08:28:05;;;;;;;;;;;;;;;10.20;66.13;97797.25;4250543;27;5641;-78
2023/01/12 08:30:09;;;;;;;;;;;;;;;10.22;66.00;97787.34;4238052;28;5720;-78
2023/01/12 08:32:16;;;;;;;;;;;;;;;10.23;66.05;97802.22;4237901;28;5652;-78
2023/01/12 08:34:21;;;;;;;;;;;;;;;10.25;65.64;97808.16;4247196;27;5641;-79
2023/01/12 08:36:25;;;;;;;;;;;;;;;10.28;65.76;97805.16;4243346;28;5689;-79
2023/01/12 08:38:28;;;;;;;;;;;;;;;10.31;65.64;97796.94;4252190;27;5709;-78
2023/01/12 08:42:49;;;;;;;;;;;;;;;10.42;65.77;97795.75;4238624;28;5712;-79
2023/01/12 08:44:52;;;;;;;;;;;;;;;10.41;65.41;97781.69;4246853;27;5644;-78
2023/01/12 08:46:55;;;;;;;;;;;;;;;10.41;65.56;97775.56;4260622;27;5616;-85
2023/01/12 08:49:02;;;;;;;;;;;;;;;10.39;65.23;97756.44;4246047;27;5637;-78
2023/01/12 08:51:07;;;;;;;;;;;;;;;10.39;65.40;97756.44;4254944;27;5628;-78
2023/01/12 08:53:11;;;;;;;;;;;;;;;10.42;65.14;97751.66;4253110;27;5616;-78
2023/01/12 08:55:14;;;;;;;;;;;;;;;10.44;65.22;97741.72;4240359;28;5633;-79
2023/01/12 08:57:18;;;;;;;;;;;;;;;10.42;65.03;97750.81;4242879;28;5666;-77
2023/01/12 08:59:21;;;;;;;;;;;;;;;10.39;65.00;97773.09;4241316;27;5623;-79
2023/01/12 09:01:24;;;;;;;;;;;;;;;10.42;64.67;97780.72;4246179;27;5629;-77
2023/01/12 09:03:27;;;;;;;;;;;;;;;10.43;64.71;97765.69;4242016;27;5637;-78
2023/01/12 09:05:30;;;;;;;;;;;;;;;10.47;64.56;97762.53;4239180;28;5661;-79
2023/01/12 09:07:34;;;;;;;;;;;;;;;10.47;64.63;97762.53;4252086;27;5096;-79
2023/01/12 09:09:37;;;;;;;;;;;;;;;10.46;64.72;97768.00;4245996;27;5666;-78
2023/01/12 09:11:42;;;;;;;;;;;;;;;10.47;64.82;97761.69;4243030;27;5735;-78
2023/01/12 09:13:45;;;;;;;;;;;;;;;10.49;64.52;97755.25;4246019;27;5619;-78
2023/01/12 09:15:48;;;;;;;;;;;;;;;10.51;64.66;97752.44;4248090;27;5650;-78
2023/01/12 09:18:10;;;;;;;;;;;;;;;10.54;64.45;97749.47;4254763;27;5624;-78
2023/01/12 09:20:14;;;;;;;;;;;;;;;10.53;64.53;97739.03;4243720;27;5755;-78
2023/01/12 09:22:17;;;;;;;;;;;;;;;10.52;63.99;97753.25;4238161;28;7124;-78
2023/01/12 09:24:21;;;;;;;;;;;;;;;10.52;64.25;97753.25;4237241;28;5670;-78
2023/01/12 09:26:27;;;;;;;;;;;;;;;10.55;64.36;97763.50;4245219;27;5640;-77
2023/01/12 09:28:30;;;;;;;;;;;;;;;10.59;64.23;97768.28;4249968;27;5703;-77
2023/01/12 09:30:33;;;;;;;;;;;;;;;10.61;64.38;97773.41;4239989;27;5821;-77
2023/01/12 09:32:36;;;;;;;;;;;;;;;10.66;64.08;97768.44;4236617;28;5728;-77
2023/01/12 09:34:39;;;;;;;;;;;;;;;10.70;63.78;97772.38;4251323;27;5616;-77
2023/01/12 09:36:43;;;;;;;;;;;;;;;10.73;63.74;97772.03;4247928;27;5637;-77
2023/01/12 09:38:47;;;;;;;;;;;;;;;10.73;63.67;97777.31;4244142;27;5739;-78
2023/01/12 09:40:51;;;;;;;;;;;;;;;10.72;63.65;97783.63;4253762;27;5703;-76
2023/01/12 09:47:49;;;;;;;;;;;;;;;10.79;63.53;97789.88;4247372;27;6288;-77
2023/01/12 09:50:01;;;;;;;;;;;;;;;10.81;63.22;97781.78;4254138;27;5629;-77
2023/01/12 09:52:18;;;;;;;;;;;;;;;10.83;63.29;97793.00;4237752;28;5669;-76
2023/01/12 09:54:20;;;;;;;;;;;;;;;10.85;63.38;97791.00;4239465;28;5735;-77
2023/01/12 09:56:31;;;;;;;;;;;;;;;10.84;63.12;97784.91;4238188;28;5641;-76
2023/01/12 09:58:54;;;;;;;;;;;;;;;10.86;63.13;97777.59;4239036;28;5653;-76
2023/01/12 10:01:01;;;;;;;;;;;;;;;10.89;62.88;97779.13;4245952;27;5639;-76
2023/01/12 10:03:14;;;;;;;;;;;;;;;10.92;63.08;97761.06;4244963;27;5641;-76
2023/01/12 10:05:28;;;;;;;;;;;;;;;10.95;63.10;97770.47;4238416;28;5661;-77
2023/01/12 10:07:41;;;;;;;;;;;;;;;10.95;62.81;97760.72;4252007;27;5620;-78
2023/01/12 10:09:44;;;;;;;;;;;;;;;10.95;62.72;97759.88;4245884;27;6383;-77
2023/01/12 10:12:00;;;;;;;;;;;;;;;10.93;62.52;97753.94;4246491;27;5636;-77
2023/01/12 10:14:16;;;;;;;;;;;;;;;10.93;62.71;97761.88;4238009;27;5657;-77
2023/01/12 10:16:25;;;;;;;;;;;;;;;10.94;62.24;97751.13;4253813;27;5699;-78
2023/01/12 10:18:34;;;;;;;;;;;;;;;10.97;62.49;97752.59;4240730;27;5641;-78
2023/01/12 10:20:49;;;;;;;;;;;;;;;11.01;62.19;97753.94;4251485;27;6317;-78
2023/01/12 10:22:59;;;;;;;;;;;;;;;11.03;62.28;97742.16;4254529;27;5631;-78
2023/01/12 10:25:21;;;;;;;;;;;;;;;11.04;62.45;97730.59;4244988;27;5660;-78
2023/01/12 10:27:25;;;;;;;;;;;;;;;11.07;62.25;97732.06;4253443;27;6328;-78
2023/01/12 10:29:31;;;;;;;;;;;;;;;11.06;62.19;97728.59;4253316;27;5632;-78
2023/01/12 10:31:34;;;;;;;;;;;;;;;11.07;62.19;97727.59;4247696;27;5653;-78
2023/01/12 10:33:36;;;;;;;;;;;;;;;11.09;62.20;97733.53;4235907;28;5645;-78
2023/01/12 10:35:53;;;;;;;;;;;;;;;11.12;61.81;97728.91;4242438;27;5800;-77
2023/01/12 10:37:56;;;;;;;;;;;;;;;11.13;61.82;97714.66;4236212;27;5641;-77
2023/01/12 10:39:59;;;;;;;;;;;;;;;11.14;61.90;97716.31;4236532;27;5755;-77
2023/01/12 10:44:34;;;;;;;;;;;;;;;11.15;62.07;97710.03;4235939;28;5645;-77
2023/01/12 10:46:37;;;;;;;;;;;;;;;11.19;61.70;97713.97;4250298;27;5635;-78
2023/01/12 10:48:42;;;;;;;;;;;;;;;11.20;62.00;97716.44;4246831;27;5794;-77
2023/01/12 10:50:57;;;;;;;;;;;;;;;11.21;61.68;97717.25;4236312;28;5765;-77
2023/01/12 10:53:04;;;;;;;;;;;;;;;11.22;61.79;97713.63;4236150;28;5637;-77
2023/01/12 10:55:18;;;;;;;;;;;;;;;11.23;61.67;97709.97;4235966;28;5728;-77
2023/01/12 10:57:24;;;;;;;;;;;;;;;11.24;61.58;97712.44;4239634;28;5783;-77
2023/01/12 10:59:32;;;;;;;;;;;;;;;11.23;61.68;97713.47;4252349;27;5722;-78
2023/01/12 11:01:50;;;;;;;;;;;;;;;11.19;61.72;97708.66;4247878;27;5655;-77
2023/01/12 11:04:04;;;;;;;;;;;;;;;11.19;61.62;97711.31;4256584;27;5628;-77
2023/01/12 11:06:31;;;;;;;;;;;;;;;11.20;61.34;97708.50;4255071;27;6325;-77
2023/01/12 11:08:34;;;;;;;;;;;;;;;11.21;61.25;97693.44;4233780;27;5645;-77
2023/01/12 11:10:37;;;;;;;;;;;;;;;11.24;61.32;97687.81;4238638;28;5756;-77
2023/01/12 11:12:40;;;;;;;;;;;;;;;11.27;61.37;97693.56;4238676;28;5649;-78
2023/01/12 11:14:43;;;;;;;;;;;;;;;11.28;61.14;97697.84;4238969;28;5649;-77
2023/01/12 11:16:49;;;;;;;;;;;;;;;11.29;60.97;97701.31;4254660;27;5719;-78
2023/01/12 11:19:08;;;;;;;;;;;;;;;11.26;60.83;97704.34;4247370;27;6348;-77
2023/01/12 11:21:14;;;;;;;;;;;;;;;11.27;60.85;97712.09;4222101;28;5721;-77
2023/01/12 11:23:22;;;;;;;;;;;;;;;11.26;60.86;97702.50;4222247;28;5662;-77
2023/01/12 11:25:26;;;;;;;;;;;;;;;11.31;61.08;97696.69;4222152;28;5683;-77
2023/01/12 11:27:35;;;;;;;;;;;;;;;11.33;60.93;97707.94;4221910;28;5682;-77
2023/01/12 11:29:45;;;;;;;;;;;;;;;11.33;60.91;97705.28;4221930;28;5708;-78
2023/01/12 11:31:53;;;;;;;;;;;;;;;11.32;60.75;97687.72;4222139;28;5145;-78
2023/01/12 11:34:01;;;;;;;;;;;;;;;11.34;60.88;97688.41;4221821;28;5638;-78
2023/01/12 11:36:08;;;;;;;;;;;;;;;11.34;60.69;97689.22;4206282;28;6504;-78
2023/01/12 11:38:14;;;;;;;;;;;;;;;11.34;60.43;97688.41;4221727;28;5634;-78
2023/01/12 11:40:28;;;;;;;;;;;;;;;11.34;60.70;97688.41;4221194;28;5659;-78
2023/01/12 11:45:01;;;;;;;;;;;;;;;11.37;60.51;97694.16;4221528;28;5682;-77
2023/01/12 11:47:09;;;;;;;;;;;;;;;11.40;60.68;97686.88;4221473;28;5706;-78
2023/01/12 11:49:17;;;;;;;;;;;;;;;11.41;60.26;97676.09;4221941;28;5662;-78
2023/01/12 11:51:20;;;;;;;;;;;;;;;11.42;60.64;97667.16;4221667;28;5722;-78
2023/01/12 11:53:25;;;;;;;;;;;;;;;11.43;60.38;97657.38;4221184;28;5829;-78
2023/01/12 11:55:41;;;;;;;;;;;;;;;11.44;60.31;97659.88;4220997;28;5699;-77
2023/01/12 11:58:01;;;;;;;;;;;;;;;11.45;60.37;97661.53;4221411;28;5757;-78
2023/01/12 12:00:17;;;;;;;;;;;;;;;11.46;60.20;97657.88;4221327;28;5670;-77
2023/01/12 12:02:35;;;;;;;;;;;;;;;11.49;60.03;97649.56;4221307;28;5651;-78
2023/01/12 12:05:02;;;;;;;;;;;;;;;11.50;60.35;97647.72;4221300;28;5634;-78
2023/01/12 12:07:23;;;;;;;;;;;;;;;11.50;60.15;97631.84;4204528;28;5699;-77
2023/01/12 12:09:58;;;;;;;;;;;;;;;11.49;59.78;97635.50;4204665;28;5692;-77
2023/01/12 12:12:05;;;;;;;;;;;;;;;11.50;59.81;97637.97;4213007;28;5637;-77
2023/01/12 12:14:27;;;;;;;;;;;;;;;11.51;59.93;97631.66;4221699;28;5649;-78
2023/01/12 12:16:41;;;;;;;;;;;;;;;11.53;59.93;97624.34;4220913;28;5655;-79
2023/01/12 12:19:14;;;;;;;;;;;;;;;11.59;59.68;97633.44;4221590;28;5801;-78
2023/01/12 12:21:43;;;;;;;;;;;;;;;11.62;59.54;97635.72;4220984;28;5662;-78
2023/01/12 12:23:56;;;;;;;;;;;;;;;11.64;59.82;97634.53;4221015;28;5922;-78
2023/01/12 12:26:09;;;;;;;;;;;;;;;11.65;59.89;97617.63;4204474;28;5695;-76
2023/01/12 12:28:38;;;;;;;;;;;;;;;11.64;59.46;97617.81;4221000;28;5790;-79
2023/01/12 12:31:00;;;;;;;;;;;;;;;11.61;59.64;97611.06;4220868;28;7210;-78
2023/01/12 12:33:11;;;;;;;;;;;;;;;11.61;59.43;97602.28;4220573;28;5073;-78
2023/01/12 12:35:34;;;;;;;;;;;;;;;11.63;59.61;97603.75;4220528;28;7686;-77
2023/01/12 12:37:50;;;;;;;;;;;;;;;11.64;59.37;97600.09;4220788;28;5862;-77
2023/01/12 12:39:57;;;;;;;;;;;;;;;11.68;59.44;97591.81;4221097;28;6736;-78
2023/01/12 12:47:11;;;;;;;;;;;;;;;11.65;59.55;97562.00;4220644;28;6339;-77
2023/01/12 12:49:17;;;;;;;;;;;;;;;11.69;59.26;97561.66;4219995;28;5682;-77
2023/01/12 12:51:24;;;;;;;;;;;;;;;11.70;59.70;97568.59;4221214;28;5670;-77
2023/01/12 12:53:30;;;;;;;;;;;;;;;11.72;59.49;97566.59;4220853;28;5646;-78
2023/01/12 12:55:35;;;;;;;;;;;;;;;11.72;59.21;97561.28;4220593;28;5634;-77
2023/01/12 12:57:59;;;;;;;;;;;;;;;11.74;59.61;97565.41;4221150;28;5642;-78
2023/01/12 13:00:03;;;;;;;;;;;;;;;11.77;59.15;97564.22;4204749;28;5858;-78
2023/01/12 13:02:38;;;;;;;;;;;;;;;11.76;59.19;97544.84;4204265;28;6365;-77
2023/01/12 13:05:02;;;;;;;;;;;;;;;11.76;59.04;97538.72;4218607;28;5659;-79
2023/01/12 13:07:15;;;;;;;;;;;;;;;11.76;59.43;97541.38;4219812;28;5723;-77
2023/01/12 13:09:38;;;;;;;;;;;;;;;11.74;59.33;97532.78;4219937;28;5678;-78
2023/01/12 13:11:49;;;;;;;;;;;;;;;11.73;59.30;97525.84;4219698;28;5646;-78
2023/01/12 13:14:00;;;;;;;;;;;;;;;11.73;59.01;97521.38;4219566;28;5749;-79
2023/01/12 13:16:45;;;;;;;;;;;;;;;11.71;59.27;97514.63;4217703;28;5622;-78
2023/01/12 13:19:05;;;;;;;;;;;;;;;11.70;59.13;97520.94;4219670;28;5618;-78
2023/01/12 13:21:31;;;;;;;;;;;;;;;11.71;59.46;97518.09;4203902;28;5767;-78
2023/01/12 13:23:46;;;;;;;;;;;;;;;11.72;59.39;97513.63;4202822;28;5708;-79
2023/01/12 13:25:56;;;;;;;;;;;;;;;11.71;58.99;97504.03;4218651;28;5657;-80
2023/01/12 13:28:19;;;;;;;;;;;;;;;11.72;59.18;97518.91;4219291;28;5662;-79
2023/01/12 13:30:41;;;;;;;;;;;;;;;11.70;58.95;97521.75;4219350;28;5812;-78
2023/01/12 13:32:56;;;;;;;;;;;;;;;11.70;59.13;97515.63;4218428;28;5658;-78
2023/01/12 13:35:01;;;;;;;;;;;;;;;11.67;59.11;97516.81;4219584;28;5666;-79
2023/01/12 13:37:29;;;;;;;;;;;;;;;11.63;59.30;97515.53;4220607;28;5803;-83
2023/01/12 13:39:39;;;;;;;;;;;;;;;11.64;59.13;97518.00;4219047;28;5630;-79
2023/01/12 13:44:05;;;;;;;;;;;;;;;11.63;58.89;97500.47;4202682;28;5823;-78
2023/01/12 13:46:12;;;;;;;;;;;;;;;11.66;59.00;97492.16;4212360;28;5646;-78
2023/01/12 13:48:17;;;;;;;;;;;;;;;11.68;58.97;97491.16;4219374;28;6329;-78
2023/01/12 13:50:23;;;;;;;;;;;;;;;11.68;59.01;97499.94;4218975;28;5659;-78
2023/01/12 13:52:29;;;;;;;;;;;;;;;11.69;58.87;97492.81;4219253;28;5783;-78
2023/01/12 13:54:35;;;;;;;;;;;;;;;11.67;58.82;97485.03;4219186;28;5973;-78
2023/01/12 13:56:39;;;;;;;;;;;;;;;11.68;59.07;97476.09;4219020;28;5626;-78
2023/01/12 13:58:43;;;;;;;;;;;;;;;11.67;58.93;97482.41;4219481;28;5638;-79
2023/01/12 14:00:54;;;;;;;;;;;;;;;11.66;58.73;97478.94;4219169;28;5769;-78
2023/01/12 14:02:58;;;;;;;;;;;;;;;11.68;58.86;97472.63;4202249;28;6337;-78
2023/01/12 14:05:18;;;;;;;;;;;;;;;11.68;58.85;97473.44;4218807;28;5661;-79
2023/01/12 14:07:32;;;;;;;;;;;;;;;11.68;59.00;97477.91;4218925;28;5663;-79
2023/01/12 14:09:49;;;;;;;;;;;;;;;11.65;59.01;97469.31;4218796;28;5682;-79
2023/01/12 14:12:16;;;;;;;;;;;;;;;11.64;58.88;97470.31;4218791;28;5674;-79
2023/01/12 14:19:40;;;;;;;;;;;;;;;11.60;59.05;97471.69;4228927;27;5624;-78
2023/01/12 14:21:44;;;;;;;;;;;;;;;11.58;59.01;97479.00;4252946;27;5636;-79
2023/01/12 14:23:46;;;;;;;;;;;;;;;11.59;59.07;97482.47;4245918;27;5756;-79
2023/01/12 14:26:06;;;;;;;;;;;;;;;11.57;59.02;97473.91;4235913;28;5723;-78
2023/01/12 14:28:18;;;;;;;;;;;;;;;11.56;58.86;97477.56;4245983;27;5631;-79
2023/01/12 14:30:23;;;;;;;;;;;;;;;11.52;58.64;97477.09;4244364;27;5784;-79
2023/01/12 14:32:26;;;;;;;;;;;;;;;11.51;58.76;97469.31;4243277;27;5799;-79
2023/01/12 14:34:33;;;;;;;;;;;;;;;11.48;58.29;97465.22;4252053;27;5611;-79
2023/01/12 14:36:41;;;;;;;;;;;;;;;11.49;58.47;97471.34;4256404;27;5763;-79
2023/01/12 14:38:45;;;;;;;;;;;;;;;11.49;58.54;97468.69;4249216;27;5744;-79
2023/01/12 14:40:53;;;;;;;;;;;;;;;11.51;58.22;97479.91;4238802;28;5642;-79
2023/01/12 14:47:46;;;;;;;;;;;;;;;11.48;58.05;97480.28;4254740;27;5792;-78
2023/01/12 14:49:49;;;;;;;;;;;;;;;11.46;58.24;97477.81;4248369;27;5624;-79
2023/01/12 14:51:54;;;;;;;;;;;;;;;11.46;57.93;97475.19;4240511;27;5641;-79
2023/01/12 14:54:00;;;;;;;;;;;;;;;11.46;57.83;97472.53;4247535;27;5628;-78
2023/01/12 14:56:15;;;;;;;;;;;;;;;11.45;58.00;97473.53;4238517;28;5645;-78
2023/01/12 14:58:21;;;;;;;;;;;;;;;11.47;58.09;97468.06;4239046;28;5658;-78
2023/01/12 15:00:31;;;;;;;;;;;;;;;11.48;57.77;97465.22;4245817;27;5657;-78
2023/01/12 15:02:36;;;;;;;;;;;;;;;11.48;58.17;97459.09;4243816;27;5619;-79
2023/01/12 15:04:50;;;;;;;;;;;;;;;11.48;58.08;97454.63;4246897;27;5631;-78
2023/01/12 15:07:01;;;;;;;;;;;;;;;11.48;57.82;97459.09;4255711;27;5631;-78
2023/01/12 15:09:03;;;;;;;;;;;;;;;11.49;57.66;97456.28;4255466;27;5648;-78
2023/01/12 15:11:09;;;;;;;;;;;;;;;11.49;57.75;97450.16;4255282;27;5764;-79
2023/01/12 15:13:27;;;;;;;;;;;;;;;11.48;58.05;97446.69;4245023;27;5638;-79
2023/01/12 15:27:22;;;;;;;;;;;;;;;11.43;57.51;97449.03;4250962;27;5627;-79
2023/01/12 15:29:28;;;;;;;;;;;;;;;11.42;57.64;97458.00;4254180;27;5705;-79
2023/01/12 15:31:33;;;;;;;;;;;;;;;11.44;57.74;97447.22;4238685;27;5758;-78
2023/01/12 15:33:36;;;;;;;;;;;;;;;11.43;57.63;97434.97;4242571;27;6512;-78
2023/01/12 15:35:44;;;;;;;;;;;;;;;11.46;57.34;97434.63;4252427;27;5732;-79
2023/01/12 15:37:47;;;;;;;;;;;;;;;11.47;57.41;97431.81;4255055;27;5640;-78
2023/01/12 15:39:50;;;;;;;;;;;;;;;11.47;57.41;97439.75;4255497;27;5074;-77
2023/01/12 15:44:27;;;;;;;;;;;;;;;11.47;57.15;97421.22;4183385;28;6874;-78
2023/01/12 15:46:30;;;;;;;;;;;;;;;11.48;57.11;97422.84;4175979;28;5740;-79
2023/01/12 15:48:32;;;;;;;;;;;;;;;11.47;57.33;97421.22;4181501;28;5729;-78
2023/01/12 15:50:39;;;;;;;;;;;;;;;11.46;57.23;97438.09;4172675;28;5806;-78
2023/01/12 15:52:42;;;;;;;;;;;;;;;11.46;57.37;97442.59;4179030;28;5768;-78
2023/01/12 15:54:44;;;;;;;;;;;;;;;11.45;57.00;97427.72;4178655;28;5847;-78
2023/01/12 15:56:48;;;;;;;;;;;;;;;11.45;57.14;97417.13;4176420;28;5757;-78
2023/01/12 15:58:51;;;;;;;;;;;;;;;11.45;57.09;97425.06;4183124;28;5744;-78
2023/01/12 16:00:55;;;;;;;;;;;;;;;11.45;56.95;97435.66;4172652;28;5863;-78
2023/01/12 16:02:58;;;;;;;;;;;;;;;11.44;56.88;97426.88;4178630;28;6615;-78
2023/01/12 16:05:01;;;;;;;;;;;;;;;11.45;57.01;97412.63;4179799;28;5827;-79
2023/01/12 16:07:04;;;;;;;;;;;;;;;11.47;56.88;97407.16;4180682;28;5812;-79
2023/01/12 16:09:07;;;;;;;;;;;;;;;11.45;56.96;97411.81;4178651;28;5909;-79
2023/01/12 16:11:16;;;;;;;;;;;;;;;11.44;56.95;97416.28;4166660;28;5853;-79
2023/01/12 16:13:19;;;;;;;;;;;;;;;11.45;56.79;97425.06;4175132;28;5830;-79
2023/01/12 16:15:23;;;;;;;;;;;;;;;11.44;56.69;97431.31;4176358;28;5833;-79
2023/01/12 16:17:27;;;;;;;;;;;;;;;11.43;56.62;97414.63;4175013;28;5868;-79
2023/01/12 16:19:32;;;;;;;;;;;;;;;11.43;56.84;97425.22;4228199;27;5623;-79
2023/01/12 16:21:36;;;;;;;;;;;;;;;11.43;56.73;97440.28;4251228;27;6301;-79
2023/01/12 16:23:39;;;;;;;;;;;;;;;11.41;56.95;97440.47;4248445;27;5086;-79
2023/01/12 16:25:42;;;;;;;;;;;;;;;11.40;56.67;97430.88;4250400;27;5624;-79
2023/01/12 16:27:45;;;;;;;;;;;;;;;11.38;56.72;97419.66;4245922;27;5895;-79
2023/01/12 16:29:47;;;;;;;;;;;;;;;11.38;56.60;97428.41;4239888;27;6698;-79
2023/01/12 16:31:51;;;;;;;;;;;;;;;11.38;56.84;97427.59;4250438;27;5644;-79
2023/01/12 16:33:55;;;;;;;;;;;;;;;11.39;56.60;97423.94;4244771;27;5666;-78
2023/01/12 16:36:00;;;;;;;;;;;;;;;11.40;56.76;97417.66;4243691;27;5624;-79
2023/01/12 16:38:03;;;;;;;;;;;;;;;11.42;56.62;97409.50;4243812;27;5641;-79
2023/01/12 16:40:07;;;;;;;;;;;;;;;11.41;56.92;97411.34;4250758;27;6055;-79
2023/01/12 16:42:10;;;;;;;;;;;;;;;11.43;56.80;97419.09;4251391;27;5640;-79
2023/01/12 16:44:13;;;;;;;;;;;;;;;11.41;56.86;97406.03;4250366;27;5730;-79
2023/01/12 16:46:16;;;;;;;;;;;;;;;11.43;56.72;97406.69;4242686;27;5695;-79
2023/01/12 16:48:19;;;;;;;;;;;;;;;11.42;56.48;97397.09;4240245;27;5704;-80
2023/01/12 16:50:23;;;;;;;;;;;;;;;11.44;56.57;97395.13;4245829;27;5722;-79
2023/01/12 16:52:26;;;;;;;;;;;;;;;11.43;56.51;97401.38;4246379;27;5715;-78
2023/01/12 16:54:29;;;;;;;;;;;;;;;11.45;56.79;97386.16;4249584;27;5635;-78
2023/01/12 16:56:31;;;;;;;;;;;;;;;11.44;56.37;97383.69;4248376;27;6771;-78
2023/01/12 16:58:34;;;;;;;;;;;;;;;11.44;56.81;97394.25;4248759;27;5843;-79
2023/01/12 17:00:37;;;;;;;;;;;;;;;11.44;56.77;97400.41;4241617;27;5785;-78
2023/01/12 17:02:41;;;;;;;;;;;;;;;11.43;56.75;97404.03;4244055;27;5808;-77
2023/01/12 17:04:46;;;;;;;;;;;;;;;11.42;56.51;97406.88;4245192;27;5624;-78
2023/01/12 17:06:51;;;;;;;;;;;;;;;11.41;56.84;97400.75;4243079;27;5809;-78
2023/01/12 17:08:54;;;;;;;;;;;;;;;11.41;56.67;97390.16;4246456;27;5635;-78
2023/01/12 17:10:57;;;;;;;;;;;;;;;11.42;56.63;97386.50;4246560;27;5748;-78
2023/01/12 17:13:00;;;;;;;;;;;;;;;11.42;56.89;97375.91;4242601;27;5810;-78
2023/01/12 17:15:05;;;;;;;;;;;;;;;11.43;56.81;97371.44;4250201;27;5722;-73
2023/01/12 17:17:09;;;;;;;;;;;;;;;11.42;56.45;97365.34;4246972;27;5766;-71
2023/01/12 17:19:12;;;;;;;;;;;;;;;11.42;56.69;97365.34;4244106;27;5728;-70
2023/01/12 17:21:16;;;;;;;;;;;;;;;11.40;56.44;97362.06;4242085;27;5737;-71
2023/01/12 17:23:20;;;;;;;;;;;;;;;11.39;56.38;97381.59;4241154;27;5716;-70
2023/01/12 17:25:23;;;;;;;;;;;;;;;11.38;56.46;97375.47;4243129;27;5903;-72
2023/01/12 17:27:26;;;;;;;;;;;;;;;11.38;56.46;97380.78;4246733;27;5738;-71
2023/01/12 17:29:29;;;;;;;;;;;;;;;11.38;56.52;97377.31;4243282;27;5723;-71
2023/01/12 17:31:32;;;;;;;;;;;;;;;11.39;56.19;97352.47;4240297;27;5650;-71
2023/01/12 17:33:35;;;;;;;;;;;;;;;11.40;56.37;97354.09;4242762;27;5826;-71
2023/01/12 17:35:38;;;;;;;;;;;;;;;11.37;56.57;97346.53;4243034;27;5874;-71
2023/01/12 17:37:41;;;;;;;;;;;;;;;11.40;56.44;97345.34;4239522;27;6591;-71
2023/01/12 17:39:46;;;;;;;;;;;;;;;11.41;56.10;97341.69;4242352;27;5371;-70
2023/01/12 17:44:09;;;;;;;;;;;;;;;11.40;56.08;97361.22;4243134;27;5834;-71
2023/01/12 17:46:18;;;;;;;;;;;;;;;11.39;56.02;97352.47;4243783;27;5643;-71
2023/01/12 17:48:20;;;;;;;;;;;;;;;11.41;56.30;97347.81;4246594;27;5651;-71
2023/01/12 17:50:23;;;;;;;;;;;;;;;11.38;56.20;97349.00;4243870;27;5691;-71
2023/01/12 17:52:26;;;;;;;;;;;;;;;11.38;56.34;97345.53;4241316;27;5882;-71
2023/01/12 17:54:29;;;;;;;;;;;;;;;11.37;56.22;97341.25;4243120;27;5832;-71
2023/01/12 17:56:34;;;;;;;;;;;;;;;11.37;56.05;97331.47;4241505;27;6690;-71
2023/01/12 17:58:37;;;;;;;;;;;;;;;11.38;55.94;97332.31;4243978;27;5721;-71
2023/01/12 18:00:39;;;;;;;;;;;;;;;11.40;56.15;97327.63;4242103;27;5643;-72
2023/01/12 18:02:43;;;;;;;;;;;;;;;11.40;56.29;97338.22;4237594;27;5823;-65
2023/01/12 18:04:46;;;;;;;;;;;;;;;11.41;56.22;97337.22;4239380;27;5633;-68
2023/01/12 18:06:49;;;;;;;;;;;;;;;11.42;56.15;97332.75;4244578;27;5714;-68
2023/01/12 18:08:52;;;;;;;;;;;;;;;11.39;56.04;97333.94;4237752;27;5917;-71
2023/01/12 18:10:55;;;;;;;;;;;;;;;11.40;56.32;97342.69;4238918;27;5708;-71
2023/01/12 18:12:59;;;;;;;;;;;;;;;11.40;56.25;97348.81;4242161;27;5695;-77
2023/01/12 18:15:05;;;;;;;;;;;;;;;11.40;56.20;97350.66;4243137;27;5792;-72
2023/01/12 18:17:09;;;;;;;;;;;;;;;11.41;56.30;97347.00;4240499;27;6466;-77
2023/01/12 18:19:13;;;;;;;;;;;;;;;11.41;56.19;97347.81;4239823;27;5628;-73
2023/01/12 18:21:19;;;;;;;;;;;;;;;11.39;56.09;97344.53;4239216;27;6416;-74
2023/01/12 18:23:22;;;;;;;;;;;;;;;11.36;56.25;97339.63;4243129;27;5641;-71